createdAt,value
2018-01-19T00:00:16.785Z,97.73
2018-01-19T00:00:42.885Z,97.64
2018-01-19T00:01:08.997Z,97.83
2018-01-19T00:01:35.100Z,98.02
2018-01-19T00:02:01.205Z,98.21
2018-01-19T00:02:27.304Z,98.21
2018-01-19T00:02:53.417Z,98.21
2018-01-19T00:03:19.520Z,98.11
2018-01-19T00:03:45.618Z,98.11
2018-01-19T00:04:11.721Z,98.21
2018-01-19T00:04:37.821Z,98.11
2018-01-19T00:05:03.925Z,98.3
2018-01-19T00:05:30.022Z,98.39
2018-01-19T00:05:56.139Z,98.21
2018-01-19T00:06:22.292Z,98.39
2018-01-19T00:06:48.351Z,98.49
2018-01-19T00:07:14.447Z,98.21
2018-01-19T00:07:40.553Z,98.3
2018-01-19T00:08:06.654Z,97.83
2018-01-19T00:08:32.754Z,98.3
2018-01-19T00:08:58.852Z,98.39
2018-01-19T00:09:24.956Z,98.21
2018-01-19T00:09:51.059Z,98.3
2018-01-19T00:10:17.180Z,97.83
2018-01-19T00:10:43.302Z,98.3
2018-01-19T00:11:09.402Z,98.11
2018-01-19T00:11:35.509Z,98.11
2018-01-19T00:12:01.622Z,98.21
2018-01-19T00:12:27.712Z,98.02
2018-01-19T00:12:53.808Z,98.21
2018-01-19T00:13:19.914Z,98.3
2018-01-19T00:13:46.013Z,98.11
2018-01-19T00:14:12.116Z,98.21
2018-01-19T00:14:38.237Z,98.11
2018-01-19T00:15:04.322Z,98.11
2018-01-19T00:15:30.423Z,98.21
2018-01-19T00:15:56.537Z,98.96
2018-01-19T00:16:22.632Z,99.06
2018-01-19T00:16:48.739Z,98.77
2018-01-19T00:17:14.844Z,98.96
2018-01-19T00:17:40.940Z,98.39
2018-01-19T00:18:07.043Z,98.11
2018-01-19T00:18:33.144Z,98.21
2018-01-19T00:18:59.251Z,98.11
2018-01-19T00:19:25.349Z,98.11
2018-01-19T00:19:51.458Z,98.39
2018-01-19T00:20:17.554Z,98.87
2018-01-19T00:20:43.658Z,98.39
2018-01-19T00:21:09.758Z,98.21
2018-01-19T00:21:35.857Z,98.02
2018-01-19T00:22:01.963Z,98.02
2018-01-19T00:22:28.062Z,98.3
2018-01-19T00:22:54.163Z,97.83
2018-01-19T00:23:20.266Z,97.92
2018-01-19T00:23:46.380Z,98.11
2018-01-19T00:24:12.485Z,98.02
2018-01-19T00:24:38.588Z,97.92
2018-01-19T00:25:04.684Z,98.02
2018-01-19T00:25:30.780Z,98.3
2018-01-19T00:25:56.889Z,98.3
2018-01-19T00:26:22.994Z,98.11
2018-01-19T00:26:49.089Z,98.21
2018-01-19T00:27:15.192Z,98.3
2018-01-19T00:27:41.291Z,98.3
2018-01-19T00:28:07.397Z,98.21
2018-01-19T00:28:33.490Z,98.21
2018-01-19T00:28:59.594Z,97.83
2018-01-19T00:29:25.700Z,97.73
2018-01-19T00:29:51.800Z,98.3
2018-01-19T00:30:17.902Z,98.49
2018-01-19T00:30:44.029Z,97.83
2018-01-19T00:31:10.124Z,97.73
2018-01-19T00:31:36.221Z,97.54
2018-01-19T00:32:02.322Z,97.64
2018-01-19T00:32:28.418Z,97.21
2018-01-19T00:32:54.525Z,97.54
2018-01-19T00:33:20.619Z,96.88
2018-01-19T00:33:46.722Z,96.73
2018-01-19T00:34:12.824Z,96.83
2018-01-19T00:34:38.935Z,96.69
2018-01-19T00:35:05.032Z,96.73
2018-01-19T00:35:31.132Z,96.73
2018-01-19T00:35:57.248Z,96.73
2018-01-19T00:36:23.347Z,96.92
2018-01-19T00:36:49.447Z,96.64
2018-01-19T00:37:15.548Z,97.16
2018-01-19T00:37:41.643Z,96.64
2018-01-19T00:38:07.751Z,97.12
2018-01-19T00:38:33.852Z,97.12
2018-01-19T00:38:59.962Z,96.64
2018-01-19T00:39:26.077Z,96.64
2018-01-19T00:39:52.194Z,96.73
2018-01-19T00:40:18.296Z,96.64
2018-01-19T00:40:44.394Z,96.55
2018-01-19T00:41:10.502Z,96.83
2018-01-19T00:41:36.598Z,96.26
2018-01-19T00:42:02.719Z,97.02
2018-01-19T00:42:28.820Z,96.88
2018-01-19T00:42:54.917Z,96.83
2018-01-19T00:43:21.037Z,96.59
2018-01-19T00:43:47.157Z,97.07
2018-01-19T00:44:13.255Z,96.97
2018-01-19T00:44:39.350Z,96.97
2018-01-19T00:45:05.456Z,96.78
2018-01-19T00:45:31.558Z,97.64
2018-01-19T00:45:57.654Z,97.26
2018-01-19T00:46:23.753Z,97.16
2018-01-19T00:46:49.859Z,97.54
2018-01-19T00:47:15.961Z,97.45
2018-01-19T00:47:42.058Z,97.54
2018-01-19T00:48:08.161Z,97.45
2018-01-19T00:48:34.264Z,97.54
2018-01-19T00:49:00.360Z,97.73
2018-01-19T00:49:26.467Z,97.45
2018-01-19T00:49:52.587Z,97.07
2018-01-19T00:50:18.688Z,97.54
2018-01-19T00:50:44.783Z,97.35
2018-01-19T00:51:10.884Z,97.26
2018-01-19T00:51:36.992Z,97.26
2018-01-19T00:52:03.090Z,97.07
2018-01-19T00:52:29.191Z,96.97
2018-01-19T00:52:55.291Z,97.21
2018-01-19T00:53:21.392Z,97.21
2018-01-19T00:53:47.498Z,97.07
2018-01-19T00:54:13.597Z,97.21
2018-01-19T00:54:39.704Z,97.12
2018-01-19T00:55:05.798Z,97.12
2018-01-19T00:55:31.900Z,96.73
2018-01-19T00:55:58.006Z,96.83
2018-01-19T00:56:24.100Z,96.73
2018-01-19T00:56:50.202Z,97.21
2018-01-19T00:57:16.304Z,97.12
2018-01-19T00:57:42.400Z,96.83
2018-01-19T00:58:08.500Z,96.83
2018-01-19T00:58:34.609Z,96.73
2018-01-19T00:59:00.706Z,96.55
2018-01-19T00:59:26.809Z,96.73
2018-01-19T00:59:52.912Z,96.55
2018-01-19T01:00:19.017Z,97.02
2018-01-19T01:00:45.157Z,96.73
2018-01-19T01:01:11.262Z,96.83
2018-01-19T01:01:37.359Z,96.64
2018-01-19T01:02:03.459Z,96.73
2018-01-19T01:02:29.566Z,96.64
2018-01-19T01:02:55.682Z,96.26
2018-01-19T01:03:21.788Z,96.26
2018-01-19T01:03:47.890Z,96.26
2018-01-19T01:04:13.989Z,96.26
2018-01-19T01:04:40.093Z,96.26
2018-01-19T01:05:06.192Z,96.17
2018-01-19T01:05:32.293Z,96.17
2018-01-19T01:05:58.400Z,96.55
2018-01-19T01:06:24.498Z,96.08
2018-01-19T01:06:50.624Z,95.69
2018-01-19T01:07:16.726Z,95.98
2018-01-19T01:07:42.826Z,95.98
2018-01-19T01:08:08.922Z,96.17
2018-01-19T01:08:35.029Z,96.08
2018-01-19T01:09:01.123Z,95.98
2018-01-19T01:09:27.229Z,95.88
2018-01-19T01:09:53.332Z,95.98
2018-01-19T01:10:19.447Z,95.79
2018-01-19T01:10:45.546Z,95.5
2018-01-19T01:11:11.653Z,95.79
2018-01-19T01:11:37.756Z,95.79
2018-01-19T01:12:03.854Z,96.26
2018-01-19T01:12:29.973Z,95.79
2018-01-19T01:12:56.070Z,95.88
2018-01-19T01:13:22.184Z,96.08
2018-01-19T01:13:48.285Z,95.88
2018-01-19T01:14:14.390Z,95.69
2018-01-19T01:14:40.488Z,95.88
2018-01-19T01:15:06.584Z,94.84
2018-01-19T01:15:32.689Z,95.69
2018-01-19T01:15:58.788Z,95.6
2018-01-19T01:16:24.894Z,95.5
2018-01-19T01:16:50.993Z,95.69
2018-01-19T01:17:17.095Z,95.69
2018-01-19T01:17:43.199Z,96.08
2018-01-19T01:18:09.296Z,94.93
2018-01-19T01:18:35.396Z,95.12
2018-01-19T01:19:01.501Z,95.31
2018-01-19T01:19:27.605Z,95.41
2018-01-19T01:19:53.703Z,94.93
2018-01-19T01:20:19.808Z,94.93
2018-01-19T01:20:45.907Z,94.56
2018-01-19T01:21:12.008Z,94.93
2018-01-19T01:21:38.113Z,94.56
2018-01-19T01:22:04.225Z,94.84
2018-01-19T01:22:30.330Z,95.12
2018-01-19T01:22:56.433Z,94.84
2018-01-19T01:23:22.531Z,94.93
2018-01-19T01:23:48.628Z,95.6
2018-01-19T01:24:14.734Z,94.93
2018-01-19T01:24:40.853Z,94.84
2018-01-19T01:25:06.953Z,94.65
2018-01-19T01:25:33.057Z,94.65
2018-01-19T01:25:59.152Z,94.93
2018-01-19T01:26:25.258Z,94.84
2018-01-19T01:26:51.357Z,94.46
2018-01-19T01:27:17.454Z,94.37
2018-01-19T01:27:43.556Z,94.74
2018-01-19T01:28:09.655Z,94.65
2018-01-19T01:28:35.759Z,94.37
2018-01-19T01:29:01.869Z,94.65
2018-01-19T01:29:27.983Z,93.89
2018-01-19T01:29:54.080Z,93.89
2018-01-19T01:30:20.184Z,94.08
2018-01-19T01:30:46.291Z,94.74
2018-01-19T01:31:12.387Z,94.65
2018-01-19T01:31:38.491Z,94.65
2018-01-19T01:32:04.630Z,94.84
2018-01-19T01:32:30.729Z,95.5
2018-01-19T01:32:56.830Z,95.22
2018-01-19T01:33:22.925Z,95.03
2018-01-19T01:33:49.049Z,95.69
2018-01-19T01:34:15.169Z,95.41
2018-01-19T01:34:41.269Z,95.5
2018-01-19T01:35:07.387Z,95.41
2018-01-19T01:35:33.493Z,95.41
2018-01-19T01:35:59.589Z,95.41
2018-01-19T01:36:25.693Z,95.98
2018-01-19T01:36:51.794Z,95.6
2018-01-19T01:37:17.909Z,95.5
2018-01-19T01:37:44.006Z,95.79
2018-01-19T01:38:10.113Z,95.98
2018-01-19T01:38:36.215Z,95.79
2018-01-19T01:39:02.312Z,96.08
2018-01-19T01:39:28.416Z,95.88
2018-01-19T01:39:54.532Z,95.84
2018-01-19T01:40:20.670Z,96.17
2018-01-19T01:40:46.768Z,96.26
2018-01-19T01:41:12.867Z,96.17
2018-01-19T01:41:38.973Z,96.36
2018-01-19T01:42:05.071Z,96.17
2018-01-19T01:42:31.171Z,95.98
2018-01-19T01:42:57.277Z,95.79
2018-01-19T01:43:23.375Z,96.36
2018-01-19T01:43:49.479Z,96.26
2018-01-19T01:44:15.576Z,95.98
2018-01-19T01:44:41.675Z,96.55
2018-01-19T01:45:07.776Z,96.36
2018-01-19T01:45:33.874Z,96.55
2018-01-19T01:45:59.980Z,96.17
2018-01-19T01:46:26.082Z,96.45
2018-01-19T01:46:52.176Z,96.17
2018-01-19T01:47:18.277Z,96.55
2018-01-19T01:47:44.382Z,96.92
2018-01-19T01:48:10.502Z,97.12
2018-01-19T01:48:36.608Z,96.83
2018-01-19T01:49:02.723Z,96.97
2018-01-19T01:49:28.832Z,96.69
2018-01-19T01:49:54.932Z,96.69
2018-01-19T01:50:21.027Z,96.78
2018-01-19T01:50:47.127Z,96.83
2018-01-19T01:51:13.229Z,96.78
2018-01-19T01:51:39.348Z,96.83
2018-01-19T01:52:05.431Z,97.02
2018-01-19T01:52:31.528Z,97.02
2018-01-19T01:52:57.645Z,96.92
2018-01-19T01:53:23.755Z,96.88
2018-01-19T01:53:49.864Z,96.83
2018-01-19T01:54:15.971Z,96.92
2018-01-19T01:54:42.064Z,96.83
2018-01-19T01:55:08.171Z,97.02
2018-01-19T01:55:34.266Z,97.12
2018-01-19T01:56:00.366Z,96.73
2018-01-19T01:56:26.466Z,96.83
2018-01-19T01:56:52.567Z,97.21
2018-01-19T01:57:18.674Z,97.02
2018-01-19T01:57:44.776Z,97.16
2018-01-19T01:58:10.873Z,96.92
2018-01-19T01:58:36.973Z,97.02
2018-01-19T01:59:03.075Z,97.31
2018-01-19T01:59:29.176Z,96.83
2018-01-19T01:59:55.281Z,96.69
2018-01-19T02:00:21.391Z,97.31
2018-01-19T02:00:47.496Z,97.21
2018-01-19T02:01:13.592Z,96.92
2018-01-19T02:01:39.698Z,96.92
2018-01-19T02:02:05.802Z,96.92
2018-01-19T02:02:31.903Z,97.21
2018-01-19T02:02:58.005Z,96.92
2018-01-19T02:03:24.103Z,97.59
2018-01-19T02:03:50.216Z,97.31
2018-01-19T02:04:16.323Z,97.4
2018-01-19T02:04:42.422Z,97.21
2018-01-19T02:05:08.519Z,96.73
2018-01-19T02:05:34.626Z,96.83
2018-01-19T02:06:00.727Z,97.21
2018-01-19T02:06:26.828Z,96.92
2018-01-19T02:06:52.927Z,96.92
2018-01-19T02:07:19.022Z,97.02
2018-01-19T02:07:45.130Z,97.26
2018-01-19T02:08:11.233Z,97.21
2018-01-19T02:08:37.329Z,97.21
2018-01-19T02:09:03.433Z,97.69
2018-01-19T02:09:29.533Z,97.4
2018-01-19T02:09:55.636Z,97.45
2018-01-19T02:10:21.733Z,97.73
2018-01-19T02:10:47.838Z,98.02
2018-01-19T02:11:13.935Z,97.97
2018-01-19T02:11:40.033Z,98.39
2018-01-19T02:12:06.139Z,98.11
2018-01-19T02:12:32.231Z,98.3
2018-01-19T02:12:58.330Z,98.25
2018-01-19T02:13:24.436Z,97.97
2018-01-19T02:13:50.542Z,98.16
2018-01-19T02:14:16.647Z,98.35
2018-01-19T02:14:42.744Z,97.78
2018-01-19T02:15:08.844Z,98.3
2018-01-19T02:15:34.944Z,98.3
2018-01-19T02:16:01.050Z,98.58
2018-01-19T02:16:27.143Z,98.87
2018-01-19T02:16:53.241Z,98.77
2018-01-19T02:17:19.345Z,98.68
2018-01-19T02:17:45.444Z,99.53
2018-01-19T02:18:11.542Z,99.63
2018-01-19T02:18:37.639Z,99.82
2018-01-19T02:19:03.744Z,99.99
2018-01-19T02:19:29.851Z,99.99
2018-01-19T02:19:55.954Z,99.99
2018-01-19T02:20:22.057Z,99.99
2018-01-19T02:20:48.158Z,99.99
2018-01-19T02:21:14.254Z,99.82
2018-01-19T02:21:40.357Z,99.99
2018-01-19T02:22:06.459Z,99.53
2018-01-19T02:22:32.558Z,99.82
2018-01-19T02:22:58.661Z,99.99
2018-01-19T02:23:24.761Z,99.82
2018-01-19T02:23:50.864Z,99.63
2018-01-19T02:24:16.961Z,99.72
2018-01-19T02:24:43.067Z,99.68
2018-01-19T02:25:09.163Z,99.39
2018-01-19T02:25:35.263Z,98.68
2018-01-19T02:26:01.368Z,98.82
2018-01-19T02:26:27.465Z,99.11
2018-01-19T02:26:53.569Z,98.92
2018-01-19T02:27:19.676Z,98.92
2018-01-19T02:27:45.786Z,98.73
2018-01-19T02:28:11.892Z,98.82
2018-01-19T02:28:37.997Z,98.82
2018-01-19T02:29:04.099Z,98.77
2018-01-19T02:29:30.194Z,99.01
2018-01-19T02:29:56.299Z,98.82
2018-01-19T02:30:22.396Z,98.54
2018-01-19T02:30:48.510Z,98.96
2018-01-19T02:31:14.614Z,98.92
2018-01-19T02:31:40.726Z,99.01
2018-01-19T02:32:06.808Z,99.3
2018-01-19T02:32:32.908Z,99.11
2018-01-19T02:32:59.011Z,99.2
2018-01-19T02:33:25.135Z,99.01
2018-01-19T02:33:51.234Z,98.92
2018-01-19T02:34:17.340Z,98.92
2018-01-19T02:34:43.438Z,99.01
2018-01-19T02:35:09.542Z,99.01
2018-01-19T02:35:35.638Z,99.2
2018-01-19T02:36:01.742Z,99.2
2018-01-19T02:36:27.843Z,98.92
2018-01-19T02:36:53.942Z,98.82
2018-01-19T02:37:20.044Z,98.82
2018-01-19T02:37:46.146Z,98.82
2018-01-19T02:38:12.243Z,99.01
2018-01-19T02:38:38.343Z,98.82
2018-01-19T02:39:04.454Z,99.01
2018-01-19T02:39:30.566Z,98.35
2018-01-19T02:39:56.687Z,98.25
2018-01-19T02:40:22.788Z,98.25
2018-01-19T02:40:48.890Z,98.92
2018-01-19T02:41:15.009Z,98.25
2018-01-19T02:41:41.110Z,97.88
2018-01-19T02:42:07.226Z,98.25
2018-01-19T02:42:33.328Z,98.35
2018-01-19T02:42:59.424Z,98.54
2018-01-19T02:43:25.527Z,98.63
2018-01-19T02:43:51.642Z,98.92
2018-01-19T02:44:17.748Z,98.82
2018-01-19T02:44:43.851Z,98.92
2018-01-19T02:45:09.948Z,99.01
2018-01-19T02:45:36.051Z,99.3
2018-01-19T02:46:02.147Z,98.82
2018-01-19T02:46:28.249Z,98.73
2018-01-19T02:46:54.356Z,99.2
2018-01-19T02:47:20.453Z,98.63
2018-01-19T02:47:46.572Z,98.82
2018-01-19T02:48:12.672Z,99.11
2018-01-19T02:48:38.775Z,99.2
2018-01-19T02:49:04.877Z,98.73
2018-01-19T02:49:30.978Z,98.82
2018-01-19T02:49:57.083Z,98.82
2018-01-19T02:50:23.179Z,99.11
2018-01-19T02:50:49.285Z,98.82
2018-01-19T02:51:15.384Z,98.82
2018-01-19T02:51:41.481Z,98.54
2018-01-19T02:52:07.588Z,98.82
2018-01-19T02:52:33.687Z,98.54
2018-01-19T02:52:59.793Z,98.82
2018-01-19T02:53:25.889Z,99.01
2018-01-19T02:53:52.011Z,98.82
2018-01-19T02:54:18.112Z,98.92
2018-01-19T02:54:44.229Z,98.92
2018-01-19T02:55:10.330Z,99.01
2018-01-19T02:55:36.426Z,98.92
2018-01-19T02:56:02.530Z,98.63
2018-01-19T02:56:28.635Z,99.11
2018-01-19T02:56:54.737Z,99.01
2018-01-19T02:57:20.842Z,99.39
2018-01-19T02:57:46.959Z,99.3
2018-01-19T02:58:13.059Z,99.3
2018-01-19T02:58:39.158Z,98.92
2018-01-19T02:59:05.258Z,98.63
2018-01-19T02:59:31.358Z,99.01
2018-01-19T02:59:57.466Z,98.73
2018-01-19T03:00:23.569Z,99.01
2018-01-19T03:00:49.668Z,98.82
2018-01-19T03:01:15.795Z,99.01
2018-01-19T03:01:41.900Z,99.11
2018-01-19T03:02:07.998Z,98.73
2018-01-19T03:02:34.093Z,98.54
2018-01-19T03:03:00.217Z,98.82
2018-01-19T03:03:26.314Z,99.01
2018-01-19T03:03:52.416Z,98.35
2018-01-19T03:04:18.518Z,99.01
2018-01-19T03:04:44.620Z,98.63
2018-01-19T03:05:10.719Z,98.35
2018-01-19T03:05:36.852Z,99.2
2018-01-19T03:06:02.957Z,99.2
2018-01-19T03:06:29.053Z,98.92
2018-01-19T03:06:55.158Z,99.01
2018-01-19T03:07:21.255Z,98.92
2018-01-19T03:07:47.362Z,99.11
2018-01-19T03:08:13.477Z,98.82
2018-01-19T03:08:39.580Z,98.82
2018-01-19T03:09:05.682Z,99.11
2018-01-19T03:09:31.781Z,99.11
2018-01-19T03:09:57.885Z,98.82
2018-01-19T03:10:23.980Z,98.73
2018-01-19T03:10:50.085Z,98.82
2018-01-19T03:11:16.183Z,98.92
2018-01-19T03:11:42.283Z,98.73
2018-01-19T03:12:08.389Z,98.82
2018-01-19T03:12:34.486Z,99.3
2018-01-19T03:13:00.589Z,99.2
2018-01-19T03:13:26.690Z,99.15
2018-01-19T03:13:52.787Z,98.92
2018-01-19T03:14:18.906Z,98.82
2018-01-19T03:14:45.006Z,99.11
2018-01-19T03:15:11.104Z,98.82
2018-01-19T03:15:37.220Z,99.01
2018-01-19T03:16:03.308Z,99.3
2018-01-19T03:16:29.410Z,99.2
2018-01-19T03:16:55.512Z,99.2
2018-01-19T03:17:21.624Z,99.11
2018-01-19T03:17:47.724Z,98.92
2018-01-19T03:18:13.827Z,98.82
2018-01-19T03:18:39.930Z,98.92
2018-01-19T03:19:06.032Z,98.92
2018-01-19T03:19:32.150Z,98.82
2018-01-19T03:19:58.246Z,99.01
2018-01-19T03:20:24.350Z,98.87
2018-01-19T03:20:50.450Z,99.58
2018-01-19T03:21:16.553Z,99.58
2018-01-19T03:21:42.659Z,99.58
2018-01-19T03:22:08.766Z,99.3
2018-01-19T03:22:34.866Z,99.2
2018-01-19T03:23:00.972Z,98.92
2018-01-19T03:23:27.079Z,98.92
2018-01-19T03:23:53.185Z,99.3
2018-01-19T03:24:19.284Z,98.82
2018-01-19T03:24:45.389Z,99.3
2018-01-19T03:25:11.489Z,98.92
2018-01-19T03:25:37.585Z,99.2
2018-01-19T03:26:03.690Z,99.2
2018-01-19T03:26:29.792Z,99.01
2018-01-19T03:26:55.890Z,99.01
2018-01-19T03:27:21.993Z,98.92
2018-01-19T03:27:48.092Z,99.01
2018-01-19T03:28:14.196Z,99.01
2018-01-19T03:28:40.296Z,98.82
2018-01-19T03:29:06.395Z,99.01
2018-01-19T03:29:32.499Z,99.25
2018-01-19T03:29:58.603Z,99.53
2018-01-19T03:30:24.701Z,99.44
2018-01-19T03:30:50.800Z,99.39
2018-01-19T03:31:16.907Z,99.39
2018-01-19T03:31:43.035Z,99.49
2018-01-19T03:32:09.145Z,99.49
2018-01-19T03:32:35.258Z,99.3
2018-01-19T03:33:01.358Z,99.58
2018-01-19T03:33:27.459Z,99.77
2018-01-19T03:33:53.563Z,99.99
2018-01-19T03:34:19.662Z,99.77
2018-01-19T03:34:45.767Z,99.77
2018-01-19T03:35:11.864Z,99.58
2018-01-19T03:35:37.988Z,99.87
2018-01-19T03:36:04.092Z,99.77
2018-01-19T03:36:30.192Z,99.68
2018-01-19T03:36:56.291Z,99.39
2018-01-19T03:37:22.398Z,99.58
2018-01-19T03:37:48.509Z,99.2
2018-01-19T03:38:14.605Z,99.11
2018-01-19T03:38:40.706Z,98.92
2018-01-19T03:39:06.814Z,99.01
2018-01-19T03:39:32.913Z,99.39
2018-01-19T03:39:59.013Z,99.3
2018-01-19T03:40:25.115Z,98.82
2018-01-19T03:40:51.213Z,99.11
2018-01-19T03:41:17.318Z,99.01
2018-01-19T03:41:43.423Z,99.3
2018-01-19T03:42:09.521Z,98.82
2018-01-19T03:42:35.635Z,98.92
2018-01-19T03:43:01.739Z,99.11
2018-01-19T03:43:27.838Z,98.92
2018-01-19T03:43:53.939Z,98.92
2018-01-19T03:44:20.042Z,98.92
2018-01-19T03:44:46.139Z,99.11
2018-01-19T03:45:12.249Z,99.01
2018-01-19T03:45:38.355Z,98.82
2018-01-19T03:46:04.450Z,98.54
2018-01-19T03:46:30.546Z,98.63
2018-01-19T03:46:56.654Z,98.82
2018-01-19T03:47:22.771Z,98.92
2018-01-19T03:47:48.879Z,98.92
2018-01-19T03:48:14.982Z,99.2
2018-01-19T03:48:41.114Z,99.01
2018-01-19T03:49:07.213Z,99.01
2018-01-19T03:49:33.319Z,99.01
2018-01-19T03:49:59.424Z,99.01
2018-01-19T03:50:25.522Z,98.82
2018-01-19T03:50:51.625Z,99.01
2018-01-19T03:51:17.734Z,97.97
2018-01-19T03:51:43.823Z,98.07
2018-01-19T03:52:09.931Z,98.35
2018-01-19T03:52:36.030Z,97.97
2018-01-19T03:53:02.131Z,98.44
2018-01-19T03:53:28.235Z,98.16
2018-01-19T03:53:54.333Z,98.16
2018-01-19T03:54:20.435Z,98.16
2018-01-19T03:54:46.530Z,98.35
2018-01-19T03:55:12.635Z,98.44
2018-01-19T03:55:38.733Z,97.88
2018-01-19T03:56:04.850Z,98.35
2018-01-19T03:56:30.956Z,97.78
2018-01-19T03:56:57.054Z,97.59
2018-01-19T03:57:23.174Z,97.59
2018-01-19T03:57:49.276Z,97.12
2018-01-19T03:58:15.381Z,97.78
2018-01-19T03:58:41.476Z,97.88
2018-01-19T03:59:07.582Z,97.69
2018-01-19T03:59:33.684Z,98.07
2018-01-19T03:59:59.781Z,97.88
2018-01-19T04:00:25.882Z,97.97
2018-01-19T04:00:51.982Z,98.07
2018-01-19T04:01:18.082Z,98.44
2018-01-19T04:01:44.185Z,98.16
2018-01-19T04:02:10.287Z,97.78
2018-01-19T04:02:36.385Z,97.78
2018-01-19T04:03:02.489Z,98.35
2018-01-19T04:03:28.589Z,98.35
2018-01-19T04:03:54.691Z,97.78
2018-01-19T04:04:20.794Z,97.78
2018-01-19T04:04:46.898Z,97.88
2018-01-19T04:05:12.998Z,97.5
2018-01-19T04:05:39.099Z,97.59
2018-01-19T04:06:05.209Z,97.69
2018-01-19T04:06:31.307Z,97.88
2018-01-19T04:06:57.411Z,97.78
2018-01-19T04:07:23.503Z,97.02
2018-01-19T04:07:49.602Z,97.21
2018-01-19T04:08:15.723Z,96.92
2018-01-19T04:08:41.818Z,97.31
2018-01-19T04:09:07.925Z,97.21
2018-01-19T04:09:34.026Z,97.21
2018-01-19T04:10:00.129Z,97.02
2018-01-19T04:10:26.223Z,96.73
2018-01-19T04:10:52.322Z,97.02
2018-01-19T04:11:18.426Z,96.55
2018-01-19T04:11:44.521Z,96.92
2018-01-19T04:12:10.646Z,96.83
2018-01-19T04:12:36.753Z,96.73
2018-01-19T04:13:02.850Z,97.5
2018-01-19T04:13:28.956Z,97.12
2018-01-19T04:13:55.070Z,96.73
2018-01-19T04:14:21.173Z,96.73
2018-01-19T04:14:47.267Z,97.4
2018-01-19T04:15:13.368Z,96.92
2018-01-19T04:15:39.472Z,96.92
2018-01-19T04:16:05.581Z,97.69
2018-01-19T04:16:31.675Z,97.4
2018-01-19T04:16:57.773Z,97.69
2018-01-19T04:17:23.877Z,97.5
2018-01-19T04:17:49.974Z,97.69
2018-01-19T04:18:16.075Z,97.88
2018-01-19T04:18:42.177Z,97.5
2018-01-19T04:19:08.285Z,97.31
2018-01-19T04:19:34.392Z,97.26
2018-01-19T04:20:00.487Z,97.35
2018-01-19T04:20:26.588Z,97.26
2018-01-19T04:20:52.688Z,97.26
2018-01-19T04:21:18.794Z,97.26
2018-01-19T04:21:44.888Z,97.83
2018-01-19T04:22:10.996Z,97.83
2018-01-19T04:22:37.098Z,97.73
2018-01-19T04:23:03.196Z,97.64
2018-01-19T04:23:29.299Z,97.73
2018-01-19T04:23:55.401Z,97.64
2018-01-19T04:24:21.500Z,98.3
2018-01-19T04:24:47.603Z,98.39
2018-01-19T04:25:13.722Z,98.39
2018-01-19T04:25:39.825Z,97.83
2018-01-19T04:26:05.921Z,98.21
2018-01-19T04:26:32.025Z,98.39
2018-01-19T04:26:58.123Z,97.26
2018-01-19T04:27:24.247Z,97.45
2018-01-19T04:27:50.343Z,97.26
2018-01-19T04:28:16.442Z,98.49
2018-01-19T04:28:42.547Z,98.39
2018-01-19T04:29:08.654Z,97.73
2018-01-19T04:29:34.751Z,97.64
2018-01-19T04:30:00.850Z,98.49
2018-01-19T04:30:26.956Z,98.39
2018-01-19T04:30:53.060Z,98.3
2018-01-19T04:31:19.157Z,98.3
2018-01-19T04:31:45.264Z,98.3
2018-01-19T04:32:11.359Z,98.02
2018-01-19T04:32:37.464Z,98.3
2018-01-19T04:33:03.560Z,97.83
2018-01-19T04:33:29.686Z,98.39
2018-01-19T04:33:55.781Z,97.83
2018-01-19T04:34:21.880Z,97.26
2018-01-19T04:34:47.984Z,97.16
2018-01-19T04:35:14.109Z,97.45
2018-01-19T04:35:40.202Z,97.26
2018-01-19T04:36:06.302Z,97.73
2018-01-19T04:36:32.407Z,98.11
2018-01-19T04:36:58.504Z,98.02
2018-01-19T04:37:24.605Z,98.02
2018-01-19T04:37:50.702Z,98.49
2018-01-19T04:38:16.806Z,98.3
2018-01-19T04:38:42.915Z,98.11
2018-01-19T04:39:09.013Z,98.49
2018-01-19T04:39:35.112Z,98.02
2018-01-19T04:40:01.222Z,98.21
2018-01-19T04:40:27.320Z,98.02
2018-01-19T04:40:53.418Z,98.11
2018-01-19T04:41:19.519Z,98.3
2018-01-19T04:41:45.614Z,98.11
2018-01-19T04:42:11.718Z,98.11
2018-01-19T04:42:37.820Z,98.3
2018-01-19T04:43:03.923Z,98.49
2018-01-19T04:43:30.026Z,98.96
2018-01-19T04:43:56.124Z,98.21
2018-01-19T04:44:22.228Z,98.87
2018-01-19T04:44:48.328Z,98.11
2018-01-19T04:45:14.425Z,97.83
2018-01-19T04:45:40.530Z,98.21
2018-01-19T04:46:06.626Z,99.06
2018-01-19T04:46:32.733Z,98.39
2018-01-19T04:46:58.829Z,98.02
2018-01-19T04:47:24.930Z,98.77
2018-01-19T04:47:51.036Z,98.11
2018-01-19T04:48:17.146Z,98.11
2018-01-19T04:48:43.237Z,98.39
2018-01-19T04:49:09.337Z,98.21
2018-01-19T04:49:35.440Z,98.3
2018-01-19T04:50:01.538Z,98.49
2018-01-19T04:50:27.638Z,98.3
2018-01-19T04:50:53.737Z,97.83
2018-01-19T04:51:19.843Z,97.83
2018-01-19T04:51:45.944Z,97.73
2018-01-19T04:52:12.058Z,97.73
2018-01-19T04:52:38.165Z,97.73
2018-01-19T04:53:04.265Z,97.35
2018-01-19T04:53:30.366Z,97.73
2018-01-19T04:53:56.468Z,97.83
2018-01-19T04:54:22.580Z,97.64
2018-01-19T04:54:48.684Z,97.64
2018-01-19T04:55:14.787Z,97.73
2018-01-19T04:55:40.883Z,97.54
2018-01-19T04:56:06.994Z,97.54
2018-01-19T04:56:33.094Z,97.35
2018-01-19T04:56:59.189Z,97.35
2018-01-19T04:57:25.296Z,97.64
2018-01-19T04:57:51.396Z,97.35
2018-01-19T04:58:17.508Z,97.73
2018-01-19T04:58:43.613Z,97.45
2018-01-19T04:59:09.714Z,97.26
2018-01-19T04:59:35.816Z,97.54
2018-01-19T05:00:01.911Z,97.64
2018-01-19T05:00:28.010Z,97.26
2018-01-19T05:00:54.111Z,97.07
2018-01-19T05:01:20.216Z,97.07
2018-01-19T05:01:46.309Z,97.26
2018-01-19T05:02:12.408Z,97.07
2018-01-19T05:02:38.513Z,97.26
2018-01-19T05:03:04.617Z,97.16
2018-01-19T05:03:30.716Z,97.26
2018-01-19T05:03:56.813Z,96.97
2018-01-19T05:04:22.920Z,97.45
2018-01-19T05:04:49.022Z,97.64
2018-01-19T05:05:15.118Z,97.07
2018-01-19T05:05:41.223Z,97.64
2018-01-19T05:06:07.326Z,97.83
2018-01-19T05:06:33.427Z,97.64
2018-01-19T05:06:59.528Z,97.64
2018-01-19T05:07:25.623Z,97.73
2018-01-19T05:07:51.728Z,97.45
2018-01-19T05:08:17.826Z,97.83
2018-01-19T05:08:43.929Z,97.26
2018-01-19T05:09:10.047Z,97.35
2018-01-19T05:09:36.144Z,97.26
2018-01-19T05:10:02.245Z,96.97
2018-01-19T05:10:28.349Z,97.26
2018-01-19T05:10:54.454Z,97.26
2018-01-19T05:11:20.551Z,97.07
2018-01-19T05:11:46.673Z,97.26
2018-01-19T05:12:12.769Z,97.26
2018-01-19T05:12:38.890Z,97.16
2018-01-19T05:13:05.006Z,97.07
2018-01-19T05:13:31.105Z,97.07
2018-01-19T05:13:57.226Z,97.07
2018-01-19T05:14:23.321Z,96.88
2018-01-19T05:14:49.425Z,96.97
2018-01-19T05:15:15.530Z,97.54
2018-01-19T05:15:41.626Z,96.97
2018-01-19T05:16:07.749Z,96.88
2018-01-19T05:16:33.845Z,96.97
2018-01-19T05:16:59.966Z,97.26
2018-01-19T05:17:26.068Z,97.54
2018-01-19T05:17:52.174Z,97.26
2018-01-19T05:18:18.274Z,97.26
2018-01-19T05:18:44.376Z,97.07
2018-01-19T05:19:10.472Z,97.64
2018-01-19T05:19:36.573Z,97.54
2018-01-19T05:20:02.674Z,97.35
2018-01-19T05:20:28.775Z,97.45
2018-01-19T05:20:54.867Z,97.26
2018-01-19T05:21:20.965Z,97.07
2018-01-19T05:21:47.068Z,97.54
2018-01-19T05:22:13.169Z,97.64
2018-01-19T05:22:39.266Z,97.73
2018-01-19T05:23:05.370Z,97.92
2018-01-19T05:23:31.474Z,97.73
2018-01-19T05:23:57.571Z,97.83
2018-01-19T05:24:23.676Z,98.49
2018-01-19T05:24:49.792Z,98.3
2018-01-19T05:25:15.908Z,97.83
2018-01-19T05:25:42.009Z,97.54
2018-01-19T05:26:08.106Z,97.73
2018-01-19T05:26:34.234Z,97.45
2018-01-19T05:27:00.336Z,97.64
2018-01-19T05:27:26.434Z,97.83
2018-01-19T05:27:52.550Z,97.83
2018-01-19T05:28:18.654Z,97.73
2018-01-19T05:28:44.757Z,97.83
2018-01-19T05:29:10.876Z,97.73
2018-01-19T05:29:36.970Z,97.73
2018-01-19T05:30:03.075Z,97.54
2018-01-19T05:30:29.171Z,97.64
2018-01-19T05:30:55.273Z,97.73
2018-01-19T05:31:21.403Z,97.83
2018-01-19T05:31:47.510Z,97.26
2018-01-19T05:32:13.606Z,97.45
2018-01-19T05:32:39.704Z,97.64
2018-01-19T05:33:05.811Z,97.64
2018-01-19T05:33:31.908Z,97.26
2018-01-19T05:33:58.013Z,97.73
2018-01-19T05:34:24.108Z,97.64
2018-01-19T05:34:50.212Z,97.64
2018-01-19T05:35:16.317Z,97.54
2018-01-19T05:35:42.415Z,97.64
2018-01-19T05:36:08.521Z,97.26
2018-01-19T05:36:34.617Z,97.26
2018-01-19T05:37:00.743Z,97.16